sensor_id;sensor_type;location;lat;lon;timestamp;temperature;humidity
19924;DHT22;10124;53.068;18.224;2023-05-10T01:59:08;6.30;99.90
19924;DHT22;10124;53.068;18.224;2023-05-10T02:01:38;6.00;1.00
19924;DHT22;10124;53.068;18.224;2023-05-10T04:26:01;6.40;1.00
19924;DHT22;10124;53.068;18.224;2023-05-10T04:31:03;6.80;1.00
19924;DHT22;10124;53.068;18.224;2023-05-10T04:41:09;7.40;1.00
19924;DHT22;10124;53.068;18.224;2023-05-10T04:46:05;7.70;1.00
19924;DHT22;10124;53.068;18.224;2023-05-10T05:32:55;10.00;1.00
19924;DHT22;10124;53.068;18.224;2023-05-10T06:17:26;14.00;1.00
19924;DHT22;10124;53.068;18.224;2023-05-10T06:19:53;14.40;1.00
19924;DHT22;10124;53.068;18.224;2023-05-10T06:22:20;14.40;1.00
19924;DHT22;10124;53.068;18.224;2023-05-10T06:24:49;14.40;99.90
19924;DHT22;10124;53.068;18.224;2023-05-10T06:29:44;15.50;1.00
19924;DHT22;10124;53.068;18.224;2023-05-10T06:32:12;15.10;1.00
19924;DHT22;10124;53.068;18.224;2023-05-10T06:39:35;16.10;99.90
19924;DHT22;10124;53.068;18.224;2023-05-10T06:44:32;17.70;1.00
19924;DHT22;10124;53.068;18.224;2023-05-10T06:46:59;18.80;1.00
19924;DHT22;10124;53.068;18.224;2023-05-10T06:49:27;18.50;1.00
19924;DHT22;10124;53.068;18.224;2023-05-10T06:51:58;19.20;1.00
19924;DHT22;10124;53.068;18.224;2023-05-10T07:14:09;19.00;1.00
19924;DHT22;10124;53.068;18.224;2023-05-10T07:16:37;19.50;1.00
19924;DHT22;10124;53.068;18.224;2023-05-10T07:28:56;21.00;1.00
19924;DHT22;10124;53.068;18.224;2023-05-10T07:38:47;21.80;1.00
19924;DHT22;10124;53.068;18.224;2023-05-10T07:41:17;21.90;1.00
19924;DHT22;10124;53.068;18.224;2023-05-10T07:43:44;22.00;1.00
19924;DHT22;10124;53.068;18.224;2023-05-10T07:46:12;22.40;1.00
19924;DHT22;10124;53.068;18.224;2023-05-10T07:48:39;22.30;1.00
19924;DHT22;10124;53.068;18.224;2023-05-10T07:51:06;22.80;1.00
19924;DHT22;10124;53.068;18.224;2023-05-10T07:53:36;22.60;1.00
19924;DHT22;10124;53.068;18.224;2023-05-10T07:56:27;22.40;1.00
19924;DHT22;10124;53.068;18.224;2023-05-10T07:58:56;22.60;1.00
19924;DHT22;10124;53.068;18.224;2023-05-10T08:01:24;23.10;1.00
19924;DHT22;10124;53.068;18.224;2023-05-10T08:03:52;23.10;1.00
19924;DHT22;10124;53.068;18.224;2023-05-10T08:06:20;23.40;1.00
19924;DHT22;10124;53.068;18.224;2023-05-10T08:08:48;23.70;1.00
19924;DHT22;10124;53.068;18.224;2023-05-10T08:11:18;23.20;1.00
19924;DHT22;10124;53.068;18.224;2023-05-10T08:13:45;22.80;1.00
19924;DHT22;10124;53.068;18.224;2023-05-10T08:16:13;23.20;1.00
19924;DHT22;10124;53.068;18.224;2023-05-10T08:18:41;23.10;1.00
19924;DHT22;10124;53.068;18.224;2023-05-10T08:21:08;23.10;1.00
19924;DHT22;10124;53.068;18.224;2023-05-10T08:23:42;23.50;1.00
19924;DHT22;10124;53.068;18.224;2023-05-10T08:26:11;23.40;1.00
19924;DHT22;10124;53.068;18.224;2023-05-10T08:28:38;23.10;1.00
19924;DHT22;10124;53.068;18.224;2023-05-10T08:31:06;22.80;1.00
19924;DHT22;10124;53.068;18.224;2023-05-10T08:36:01;23.80;1.00
19924;DHT22;10124;53.068;18.224;2023-05-10T08:43:27;23.30;1.00
19924;DHT22;10124;53.068;18.224;2023-05-10T08:46:00;22.80;1.00
19924;DHT22;10124;53.068;18.224;2023-05-10T08:53:28;24.60;1.00
19924;DHT22;10124;53.068;18.224;2023-05-10T08:55:58;24.60;1.00
19924;DHT22;10124;53.068;18.224;2023-05-10T08:58:26;24.80;1.00
19924;DHT22;10124;53.068;18.224;2023-05-10T09:11:00;25.40;1.00
19924;DHT22;10124;53.068;18.224;2023-05-10T09:15:56;25.50;1.00
19924;DHT22;10124;53.068;18.224;2023-05-10T09:18:32;25.10;1.00
19924;DHT22;10124;53.068;18.224;2023-05-10T09:21:01;25.70;1.00
19924;DHT22;10124;53.068;18.224;2023-05-10T09:23:28;26.80;1.00
19924;DHT22;10124;53.068;18.224;2023-05-10T09:26:03;27.10;1.00
19924;DHT22;10124;53.068;18.224;2023-05-10T09:28:33;25.70;1.00
19924;DHT22;10124;53.068;18.224;2023-05-10T09:36:06;26.00;1.00
19924;DHT22;10124;53.068;18.224;2023-05-10T09:38:49;26.20;1.00
19924;DHT22;10124;53.068;18.224;2023-05-10T09:41:22;26.20;1.00
19924;DHT22;10124;53.068;18.224;2023-05-10T09:43:50;26.90;1.00
19924;DHT22;10124;53.068;18.224;2023-05-10T09:46:22;26.60;1.00
19924;DHT22;10124;53.068;18.224;2023-05-10T09:48:50;26.60;1.00
19924;DHT22;10124;53.068;18.224;2023-05-10T09:51:24;27.10;1.00
19924;DHT22;10124;53.068;18.224;2023-05-10T09:54:10;27.80;1.00
19924;DHT22;10124;53.068;18.224;2023-05-10T09:59:10;28.10;1.00
19924;DHT22;10124;53.068;18.224;2023-05-10T10:01:39;27.40;1.00
19924;DHT22;10124;53.068;18.224;2023-05-10T10:04:09;27.60;1.00
19924;DHT22;10124;53.068;18.224;2023-05-10T10:06:40;27.20;1.00
19924;DHT22;10124;53.068;18.224;2023-05-10T10:09:13;27.60;1.00
19924;DHT22;10124;53.068;18.224;2023-05-10T10:14:09;26.90;1.00
19924;DHT22;10124;53.068;18.224;2023-05-10T10:16:36;26.90;1.00
19924;DHT22;10124;53.068;18.224;2023-05-10T10:19:21;26.60;1.00
19924;DHT22;10124;53.068;18.224;2023-05-10T10:21:52;27.30;1.00
19924;DHT22;10124;53.068;18.224;2023-05-10T10:24:19;27.10;1.00
19924;DHT22;10124;53.068;18.224;2023-05-10T10:26:47;26.70;1.00
19924;DHT22;10124;53.068;18.224;2023-05-10T10:29:26;26.60;1.00
19924;DHT22;10124;53.068;18.224;2023-05-10T10:34:48;27.20;1.00
19924;DHT22;10124;53.068;18.224;2023-05-10T10:37:16;27.70;1.00
19924;DHT22;10124;53.068;18.224;2023-05-10T10:39:44;27.00;1.00
19924;DHT22;10124;53.068;18.224;2023-05-10T10:42:11;26.60;1.00
19924;DHT22;10124;53.068;18.224;2023-05-10T10:44:39;26.80;1.00
19924;DHT22;10124;53.068;18.224;2023-05-10T10:47:20;26.60;1.00
19924;DHT22;10124;53.068;18.224;2023-05-10T10:55:07;28.00;1.00
19924;DHT22;10124;53.068;18.224;2023-05-10T11:03:08;28.10;1.00
19924;DHT22;10124;53.068;18.224;2023-05-10T11:05:42;27.60;1.00
19924;DHT22;10124;53.068;18.224;2023-05-10T11:08:16;27.20;1.00
19924;DHT22;10124;53.068;18.224;2023-05-10T11:11:05;27.20;1.00
19924;DHT22;10124;53.068;18.224;2023-05-10T11:13:46;27.10;1.00
19924;DHT22;10124;53.068;18.224;2023-05-10T11:16:19;27.40;1.00
19924;DHT22;10124;53.068;18.224;2023-05-10T11:19:01;28.00;1.00
19924;DHT22;10124;53.068;18.224;2023-05-10T11:21:33;28.20;1.00
19924;DHT22;10124;53.068;18.224;2023-05-10T11:24:01;27.70;1.00
19924;DHT22;10124;53.068;18.224;2023-05-10T11:26:36;27.90;1.00
19924;DHT22;10124;53.068;18.224;2023-05-10T11:29:04;27.90;1.00
19924;DHT22;10124;53.068;18.224;2023-05-10T11:31:32;27.90;1.00
19924;DHT22;10124;53.068;18.224;2023-05-10T11:34:00;28.00;1.00
19924;DHT22;10124;53.068;18.224;2023-05-10T11:36:35;28.10;1.00
19924;DHT22;10124;53.068;18.224;2023-05-10T11:39:04;28.40;1.00
19924;DHT22;10124;53.068;18.224;2023-05-10T11:41:33;28.40;1.00
19924;DHT22;10124;53.068;18.224;2023-05-10T11:44:03;28.10;1.00
19924;DHT22;10124;53.068;18.224;2023-05-10T11:46:31;27.70;1.00
19924;DHT22;10124;53.068;18.224;2023-05-10T11:49:02;28.00;1.00
19924;DHT22;10124;53.068;18.224;2023-05-10T11:51:34;27.70;1.00
19924;DHT22;10124;53.068;18.224;2023-05-10T11:54:07;27.50;1.00
19924;DHT22;10124;53.068;18.224;2023-05-10T11:56:37;27.50;1.00
19924;DHT22;10124;53.068;18.224;2023-05-10T11:59:06;27.20;1.00
19924;DHT22;10124;53.068;18.224;2023-05-10T12:01:33;27.50;1.00
19924;DHT22;10124;53.068;18.224;2023-05-10T12:04:01;27.00;1.00
19924;DHT22;10124;53.068;18.224;2023-05-10T12:06:31;28.10;1.00
19924;DHT22;10124;53.068;18.224;2023-05-10T12:09:06;28.40;1.00
19924;DHT22;10124;53.068;18.224;2023-05-10T12:11:38;28.10;1.00
19924;DHT22;10124;53.068;18.224;2023-05-10T12:14:10;27.50;1.00
19924;DHT22;10124;53.068;18.224;2023-05-10T12:16:39;27.80;1.00
19924;DHT22;10124;53.068;18.224;2023-05-10T12:19:07;27.60;1.00
19924;DHT22;10124;53.068;18.224;2023-05-10T12:21:35;27.90;1.00
19924;DHT22;10124;53.068;18.224;2023-05-10T12:24:03;28.00;1.00
19924;DHT22;10124;53.068;18.224;2023-05-10T12:26:32;27.40;1.00
19924;DHT22;10124;53.068;18.224;2023-05-10T12:29:16;27.60;1.00
19924;DHT22;10124;53.068;18.224;2023-05-10T12:31:55;27.00;1.00
19924;DHT22;10124;53.068;18.224;2023-05-10T12:34:41;27.20;1.00
19924;DHT22;10124;53.068;18.224;2023-05-10T12:37:08;27.40;1.00
19924;DHT22;10124;53.068;18.224;2023-05-10T12:39:43;27.30;1.00
19924;DHT22;10124;53.068;18.224;2023-05-10T12:42:11;27.10;1.00
19924;DHT22;10124;53.068;18.224;2023-05-10T12:44:39;26.80;1.00
19924;DHT22;10124;53.068;18.224;2023-05-10T12:47:07;26.30;1.00
19924;DHT22;10124;53.068;18.224;2023-05-10T12:49:34;26.50;1.00
19924;DHT22;10124;53.068;18.224;2023-05-10T12:52:02;26.90;1.00
19924;DHT22;10124;53.068;18.224;2023-05-10T12:54:30;27.40;1.00
19924;DHT22;10124;53.068;18.224;2023-05-10T12:56:57;26.70;1.00
19924;DHT22;10124;53.068;18.224;2023-05-10T12:59:25;26.70;1.00
19924;DHT22;10124;53.068;18.224;2023-05-10T13:04:20;26.40;1.00
19924;DHT22;10124;53.068;18.224;2023-05-10T13:11:44;26.90;1.00
19924;DHT22;10124;53.068;18.224;2023-05-10T13:19:08;26.60;1.00
19924;DHT22;10124;53.068;18.224;2023-05-10T13:21:40;26.80;1.00
19924;DHT22;10124;53.068;18.224;2023-05-10T13:24:12;26.90;1.00
19924;DHT22;10124;53.068;18.224;2023-05-10T13:26:44;26.70;1.00
19924;DHT22;10124;53.068;18.224;2023-05-10T13:29:11;27.10;1.00
19924;DHT22;10124;53.068;18.224;2023-05-10T13:31:40;26.40;1.00
19924;DHT22;10124;53.068;18.224;2023-05-10T13:34:07;26.30;1.00
19924;DHT22;10124;53.068;18.224;2023-05-10T13:36:35;26.50;1.00
19924;DHT22;10124;53.068;18.224;2023-05-10T13:41:32;26.20;1.00
19924;DHT22;10124;53.068;18.224;2023-05-10T13:46:29;26.50;1.00
19924;DHT22;10124;53.068;18.224;2023-05-10T13:48:58;26.90;1.00
19924;DHT22;10124;53.068;18.224;2023-05-10T14:00:07;25.80;1.00
19924;DHT22;10124;53.068;18.224;2023-05-10T14:02:35;26.90;1.00
19924;DHT22;10124;53.068;18.224;2023-05-10T14:05:04;26.10;1.00
19924;DHT22;10124;53.068;18.224;2023-05-10T14:07:32;25.60;1.00
19924;DHT22;10124;53.068;18.224;2023-05-10T14:10:00;26.10;1.00
19924;DHT22;10124;53.068;18.224;2023-05-10T14:17:25;25.60;1.00
19924;DHT22;10124;53.068;18.224;2023-05-10T14:19:53;25.80;1.00
19924;DHT22;10124;53.068;18.224;2023-05-10T14:22:20;26.00;1.00
19924;DHT22;10124;53.068;18.224;2023-05-10T14:24:48;25.50;1.00
19924;DHT22;10124;53.068;18.224;2023-05-10T14:29:44;25.50;1.00
19924;DHT22;10124;53.068;18.224;2023-05-10T14:32:11;25.20;1.00
19924;DHT22;10124;53.068;18.224;2023-05-10T14:34:39;25.10;1.00
19924;DHT22;10124;53.068;18.224;2023-05-10T14:37:06;24.80;1.00
19924;DHT22;10124;53.068;18.224;2023-05-10T14:39:35;24.90;1.00
19924;DHT22;10124;53.068;18.224;2023-05-10T14:42:06;24.70;1.00
19924;DHT22;10124;53.068;18.224;2023-05-10T14:44:35;24.10;1.00
19924;DHT22;10124;53.068;18.224;2023-05-10T14:47:02;24.10;1.00
19924;DHT22;10124;53.068;18.224;2023-05-10T14:49:30;23.90;1.00
19924;DHT22;10124;53.068;18.224;2023-05-10T14:51:57;24.00;1.00
19924;DHT22;10124;53.068;18.224;2023-05-10T14:57:34;24.10;1.00
19924;DHT22;10124;53.068;18.224;2023-05-10T15:00:03;23.70;1.00
19924;DHT22;10124;53.068;18.224;2023-05-10T15:02:31;23.40;1.00
19924;DHT22;10124;53.068;18.224;2023-05-10T15:05:00;22.60;1.00
19924;DHT22;10124;53.068;18.224;2023-05-10T15:07:40;22.10;1.00
19924;DHT22;10124;53.068;18.224;2023-05-10T15:10:11;21.60;1.00
19924;DHT22;10124;53.068;18.224;2023-05-10T15:12:39;21.20;1.00
19924;DHT22;10124;53.068;18.224;2023-05-10T15:15:07;21.20;1.00
19924;DHT22;10124;53.068;18.224;2023-05-10T15:17:34;21.00;1.00
19924;DHT22;10124;53.068;18.224;2023-05-10T15:20:02;20.90;1.00
19924;DHT22;10124;53.068;18.224;2023-05-10T15:22:30;20.60;1.00
19924;DHT22;10124;53.068;18.224;2023-05-10T15:25:00;20.30;1.00
19924;DHT22;10124;53.068;18.224;2023-05-10T15:27:28;20.30;1.00
19924;DHT22;10124;53.068;18.224;2023-05-10T15:29:56;20.30;1.00
19924;DHT22;10124;53.068;18.224;2023-05-10T15:32:24;20.20;1.00
19924;DHT22;10124;53.068;18.224;2023-05-10T15:34:51;20.20;1.00
19924;DHT22;10124;53.068;18.224;2023-05-10T15:37:19;20.20;1.00
19924;DHT22;10124;53.068;18.224;2023-05-10T15:39:47;19.80;1.00
19924;DHT22;10124;53.068;18.224;2023-05-10T15:42:15;19.90;1.00
19924;DHT22;10124;53.068;18.224;2023-05-10T15:44:43;20.00;1.00
19924;DHT22;10124;53.068;18.224;2023-05-10T15:47:11;20.00;1.00
19924;DHT22;10124;53.068;18.224;2023-05-10T15:49:39;20.00;1.00
19924;DHT22;10124;53.068;18.224;2023-05-10T15:52:06;19.80;1.00
19924;DHT22;10124;53.068;18.224;2023-05-10T15:54:34;19.70;1.00
19924;DHT22;10124;53.068;18.224;2023-05-10T15:57:01;19.60;1.00
19924;DHT22;10124;53.068;18.224;2023-05-10T15:59:29;19.70;1.00
19924;DHT22;10124;53.068;18.224;2023-05-10T16:01:57;19.70;1.00
19924;DHT22;10124;53.068;18.224;2023-05-10T16:04:25;19.60;1.00
19924;DHT22;10124;53.068;18.224;2023-05-10T16:06:53;19.40;1.00
19924;DHT22;10124;53.068;18.224;2023-05-10T16:09:21;19.40;1.00
19924;DHT22;10124;53.068;18.224;2023-05-10T16:11:48;19.40;1.00
19924;DHT22;10124;53.068;18.224;2023-05-10T16:14:16;19.30;1.00
19924;DHT22;10124;53.068;18.224;2023-05-10T16:16:43;19.30;1.00
19924;DHT22;10124;53.068;18.224;2023-05-10T16:19:11;19.30;1.00
19924;DHT22;10124;53.068;18.224;2023-05-10T16:21:38;19.20;1.00
19924;DHT22;10124;53.068;18.224;2023-05-10T16:24:06;19.20;1.00
19924;DHT22;10124;53.068;18.224;2023-05-10T16:26:33;19.20;1.00
19924;DHT22;10124;53.068;18.224;2023-05-10T16:29:07;19.00;1.00
19924;DHT22;10124;53.068;18.224;2023-05-10T16:31:35;19.10;1.00
19924;DHT22;10124;53.068;18.224;2023-05-10T16:34:02;19.00;1.00
19924;DHT22;10124;53.068;18.224;2023-05-10T16:36:30;19.10;1.00
19924;DHT22;10124;53.068;18.224;2023-05-10T16:38:58;19.10;1.00
19924;DHT22;10124;53.068;18.224;2023-05-10T16:41:25;19.00;1.00
19924;DHT22;10124;53.068;18.224;2023-05-10T16:43:53;18.80;1.00
19924;DHT22;10124;53.068;18.224;2023-05-10T16:46:21;18.80;1.00
19924;DHT22;10124;53.068;18.224;2023-05-10T16:48:48;18.80;1.00
19924;DHT22;10124;53.068;18.224;2023-05-10T16:51:16;18.70;1.00
19924;DHT22;10124;53.068;18.224;2023-05-10T16:53:43;18.60;1.00
19924;DHT22;10124;53.068;18.224;2023-05-10T16:56:11;18.50;1.00
19924;DHT22;10124;53.068;18.224;2023-05-10T16:58:38;18.50;1.00
19924;DHT22;10124;53.068;18.224;2023-05-10T17:01:05;18.40;1.00
19924;DHT22;10124;53.068;18.224;2023-05-10T17:03:33;18.40;1.00
19924;DHT22;10124;53.068;18.224;2023-05-10T17:06:01;18.40;1.00
19924;DHT22;10124;53.068;18.224;2023-05-10T17:08:28;18.40;1.00
19924;DHT22;10124;53.068;18.224;2023-05-10T17:11:00;18.30;1.00
19924;DHT22;10124;53.068;18.224;2023-05-10T17:13:29;18.20;1.00
19924;DHT22;10124;53.068;18.224;2023-05-10T17:15:57;18.20;1.00
19924;DHT22;10124;53.068;18.224;2023-05-10T17:18:25;18.10;1.00
19924;DHT22;10124;53.068;18.224;2023-05-10T17:20:52;18.10;1.00
19924;DHT22;10124;53.068;18.224;2023-05-10T17:23:20;18.10;1.00
19924;DHT22;10124;53.068;18.224;2023-05-10T17:25:47;18.10;1.00
19924;DHT22;10124;53.068;18.224;2023-05-10T17:28:15;17.90;1.00
19924;DHT22;10124;53.068;18.224;2023-05-10T17:30:43;17.90;1.00
19924;DHT22;10124;53.068;18.224;2023-05-10T17:33:11;17.90;1.00
19924;DHT22;10124;53.068;18.224;2023-05-10T17:35:38;17.80;1.00
19924;DHT22;10124;53.068;18.224;2023-05-10T17:38:06;17.80;1.00
19924;DHT22;10124;53.068;18.224;2023-05-10T17:40:34;17.60;1.00
19924;DHT22;10124;53.068;18.224;2023-05-10T17:43:02;17.60;1.00
19924;DHT22;10124;53.068;18.224;2023-05-10T17:45:30;17.50;1.00
19924;DHT22;10124;53.068;18.224;2023-05-10T17:47:58;17.40;1.00
19924;DHT22;10124;53.068;18.224;2023-05-10T17:50:26;17.20;1.00
19924;DHT22;10124;53.068;18.224;2023-05-10T17:52:53;17.20;1.00
19924;DHT22;10124;53.068;18.224;2023-05-10T17:55:21;17.10;1.00
19924;DHT22;10124;53.068;18.224;2023-05-10T17:57:49;16.90;1.00
19924;DHT22;10124;53.068;18.224;2023-05-10T18:00:18;16.80;1.00
19924;DHT22;10124;53.068;18.224;2023-05-10T18:02:45;16.60;1.00
19924;DHT22;10124;53.068;18.224;2023-05-10T18:05:13;16.70;1.00
19924;DHT22;10124;53.068;18.224;2023-05-10T18:07:41;16.50;1.00
19924;DHT22;10124;53.068;18.224;2023-05-10T18:10:10;16.30;1.00
19924;DHT22;10124;53.068;18.224;2023-05-10T18:12:38;16.30;1.00
19924;DHT22;10124;53.068;18.224;2023-05-10T18:15:06;16.10;1.00
19924;DHT22;10124;53.068;18.224;2023-05-10T18:17:33;16.00;1.00
19924;DHT22;10124;53.068;18.224;2023-05-10T18:20:01;15.90;1.00
19924;DHT22;10124;53.068;18.224;2023-05-10T18:22:28;15.80;1.00
19924;DHT22;10124;53.068;18.224;2023-05-10T18:24:56;15.60;1.00
19924;DHT22;10124;53.068;18.224;2023-05-10T18:27:23;15.40;1.00
19924;DHT22;10124;53.068;18.224;2023-05-10T18:29:51;15.40;1.00
19924;DHT22;10124;53.068;18.224;2023-05-10T18:32:19;15.20;1.00
19924;DHT22;10124;53.068;18.224;2023-05-10T18:34:46;15.10;1.00
19924;DHT22;10124;53.068;18.224;2023-05-10T18:37:14;14.90;1.00
19924;DHT22;10124;53.068;18.224;2023-05-10T18:39:41;14.90;1.00
19924;DHT22;10124;53.068;18.224;2023-05-10T18:42:09;14.60;1.00
19924;DHT22;10124;53.068;18.224;2023-05-10T18:44:36;14.70;1.00
19924;DHT22;10124;53.068;18.224;2023-05-10T18:47:04;14.50;1.00
19924;DHT22;10124;53.068;18.224;2023-05-10T18:49:31;14.50;1.00
19924;DHT22;10124;53.068;18.224;2023-05-10T18:51:59;14.40;1.00
19924;DHT22;10124;53.068;18.224;2023-05-10T18:54:26;14.20;1.00
19924;DHT22;10124;53.068;18.224;2023-05-10T18:56:54;14.10;1.00
19924;DHT22;10124;53.068;18.224;2023-05-10T18:59:23;14.00;1.00
19924;DHT22;10124;53.068;18.224;2023-05-10T19:01:54;13.80;1.00
19924;DHT22;10124;53.068;18.224;2023-05-10T19:04:23;13.80;1.00
19924;DHT22;10124;53.068;18.224;2023-05-10T19:06:51;13.70;1.00
19924;DHT22;10124;53.068;18.224;2023-05-10T19:09:19;13.70;1.00
19924;DHT22;10124;53.068;18.224;2023-05-10T19:11:47;13.60;1.00
19924;DHT22;10124;53.068;18.224;2023-05-10T19:14:15;13.50;1.00
19924;DHT22;10124;53.068;18.224;2023-05-10T19:16:43;13.40;1.00
19924;DHT22;10124;53.068;18.224;2023-05-10T19:19:11;13.40;1.00
19924;DHT22;10124;53.068;18.224;2023-05-10T19:21:40;13.40;1.00
19924;DHT22;10124;53.068;18.224;2023-05-10T19:24:08;13.30;1.00
19924;DHT22;10124;53.068;18.224;2023-05-10T19:26:36;13.40;1.00
19924;DHT22;10124;53.068;18.224;2023-05-10T19:29:03;13.40;1.00
19924;DHT22;10124;53.068;18.224;2023-05-10T19:31:32;13.50;1.00
19924;DHT22;10124;53.068;18.224;2023-05-10T19:34:01;13.40;1.00
19924;DHT22;10124;53.068;18.224;2023-05-10T19:36:32;13.20;1.00
19924;DHT22;10124;53.068;18.224;2023-05-10T19:39:00;13.30;1.00
19924;DHT22;10124;53.068;18.224;2023-05-10T19:41:27;13.70;1.00
19924;DHT22;10124;53.068;18.224;2023-05-10T19:43:55;13.40;1.00
19924;DHT22;10124;53.068;18.224;2023-05-10T19:46:22;13.40;1.00
19924;DHT22;10124;53.068;18.224;2023-05-10T19:48:51;13.50;1.00
19924;DHT22;10124;53.068;18.224;2023-05-10T19:51:19;13.50;1.00
19924;DHT22;10124;53.068;18.224;2023-05-10T19:53:46;13.50;1.00
19924;DHT22;10124;53.068;18.224;2023-05-10T19:56:14;13.60;1.00
19924;DHT22;10124;53.068;18.224;2023-05-10T19:58:42;13.60;1.00
19924;DHT22;10124;53.068;18.224;2023-05-10T20:01:10;13.50;1.00
19924;DHT22;10124;53.068;18.224;2023-05-10T20:03:37;14.00;1.00
19924;DHT22;10124;53.068;18.224;2023-05-10T20:06:05;13.50;1.00
19924;DHT22;10124;53.068;18.224;2023-05-10T20:08:33;13.50;1.00
19924;DHT22;10124;53.068;18.224;2023-05-10T20:11:00;13.30;1.00
19924;DHT22;10124;53.068;18.224;2023-05-10T20:13:30;13.50;1.00
19924;DHT22;10124;53.068;18.224;2023-05-10T20:15:58;13.30;1.00
19924;DHT22;10124;53.068;18.224;2023-05-10T20:18:26;13.20;1.00
19924;DHT22;10124;53.068;18.224;2023-05-10T20:20:56;13.60;1.00
19924;DHT22;10124;53.068;18.224;2023-05-10T20:23:24;13.10;1.00
19924;DHT22;10124;53.068;18.224;2023-05-10T20:25:52;13.10;1.00
19924;DHT22;10124;53.068;18.224;2023-05-10T20:28:22;13.10;1.00
19924;DHT22;10124;53.068;18.224;2023-05-10T20:30:53;13.00;1.00
19924;DHT22;10124;53.068;18.224;2023-05-10T20:33:23;13.00;1.00
19924;DHT22;10124;53.068;18.224;2023-05-10T20:35:51;13.10;1.00
19924;DHT22;10124;53.068;18.224;2023-05-10T20:38:19;13.20;1.00
19924;DHT22;10124;53.068;18.224;2023-05-10T20:40:48;13.00;1.00
19924;DHT22;10124;53.068;18.224;2023-05-10T20:43:15;13.20;1.00
19924;DHT22;10124;53.068;18.224;2023-05-10T20:45:43;13.10;1.00
19924;DHT22;10124;53.068;18.224;2023-05-10T20:48:10;13.10;1.00
19924;DHT22;10124;53.068;18.224;2023-05-10T20:50:37;13.00;1.00
19924;DHT22;10124;53.068;18.224;2023-05-10T20:53:05;13.10;1.00
19924;DHT22;10124;53.068;18.224;2023-05-10T20:55:33;13.10;1.00
19924;DHT22;10124;53.068;18.224;2023-05-10T20:58:00;13.00;1.00
19924;DHT22;10124;53.068;18.224;2023-05-10T21:00:32;13.00;1.00
19924;DHT22;10124;53.068;18.224;2023-05-10T21:02:59;13.00;1.00
19924;DHT22;10124;53.068;18.224;2023-05-10T21:05:27;13.00;1.00
19924;DHT22;10124;53.068;18.224;2023-05-10T21:07:54;13.00;1.00
19924;DHT22;10124;53.068;18.224;2023-05-10T21:10:22;12.90;1.00
19924;DHT22;10124;53.068;18.224;2023-05-10T21:12:51;12.80;1.00
19924;DHT22;10124;53.068;18.224;2023-05-10T21:15:18;12.70;1.00
19924;DHT22;10124;53.068;18.224;2023-05-10T21:17:45;12.80;1.00
19924;DHT22;10124;53.068;18.224;2023-05-10T21:20:13;12.70;1.00
19924;DHT22;10124;53.068;18.224;2023-05-10T21:22:41;12.70;1.00
19924;DHT22;10124;53.068;18.224;2023-05-10T21:25:08;12.70;1.00
19924;DHT22;10124;53.068;18.224;2023-05-10T21:27:36;12.70;1.00
19924;DHT22;10124;53.068;18.224;2023-05-10T21:30:04;12.60;1.00
19924;DHT22;10124;53.068;18.224;2023-05-10T21:32:31;12.70;1.00
19924;DHT22;10124;53.068;18.224;2023-05-10T21:34:59;12.60;1.00
19924;DHT22;10124;53.068;18.224;2023-05-10T21:37:26;12.50;1.00
19924;DHT22;10124;53.068;18.224;2023-05-10T21:39:54;12.40;1.00
19924;DHT22;10124;53.068;18.224;2023-05-10T21:42:21;12.40;1.00
19924;DHT22;10124;53.068;18.224;2023-05-10T21:44:49;12.40;1.00
19924;DHT22;10124;53.068;18.224;2023-05-10T21:47:16;12.30;1.00
19924;DHT22;10124;53.068;18.224;2023-05-10T21:49:44;12.30;1.00
19924;DHT22;10124;53.068;18.224;2023-05-10T21:52:11;13.60;1.00
19924;DHT22;10124;53.068;18.224;2023-05-10T21:54:39;12.20;1.00
19924;DHT22;10124;53.068;18.224;2023-05-10T21:57:06;12.30;1.00
19924;DHT22;10124;53.068;18.224;2023-05-10T21:59:33;12.20;1.00
19924;DHT22;10124;53.068;18.224;2023-05-10T22:02:00;12.30;1.00
19924;DHT22;10124;53.068;18.224;2023-05-10T22:04:28;12.60;1.00
19924;DHT22;10124;53.068;18.224;2023-05-10T22:06:55;12.20;1.00
19924;DHT22;10124;53.068;18.224;2023-05-10T22:09:23;12.20;1.00
19924;DHT22;10124;53.068;18.224;2023-05-10T22:11:51;12.00;1.00
19924;DHT22;10124;53.068;18.224;2023-05-10T22:14:18;12.10;1.00
19924;DHT22;10124;53.068;18.224;2023-05-10T22:16:45;12.90;1.00
19924;DHT22;10124;53.068;18.224;2023-05-10T22:19:13;12.10;1.00
19924;DHT22;10124;53.068;18.224;2023-05-10T22:21:40;11.90;1.00
19924;DHT22;10124;53.068;18.224;2023-05-10T22:24:08;11.90;1.00
19924;DHT22;10124;53.068;18.224;2023-05-10T22:26:35;11.80;1.00
19924;DHT22;10124;53.068;18.224;2023-05-10T22:29:03;11.80;1.00
19924;DHT22;10124;53.068;18.224;2023-05-10T22:31:30;11.70;1.00
19924;DHT22;10124;53.068;18.224;2023-05-10T22:33:58;11.60;1.00
19924;DHT22;10124;53.068;18.224;2023-05-10T22:36:25;11.50;1.00
19924;DHT22;10124;53.068;18.224;2023-05-10T22:38:53;11.40;1.00
19924;DHT22;10124;53.068;18.224;2023-05-10T22:41:21;11.40;1.00
19924;DHT22;10124;53.068;18.224;2023-05-10T22:43:49;11.40;1.00
19924;DHT22;10124;53.068;18.224;2023-05-10T22:46:16;11.20;1.00
19924;DHT22;10124;53.068;18.224;2023-05-10T22:48:43;11.20;1.00
19924;DHT22;10124;53.068;18.224;2023-05-10T22:51:10;11.10;1.00
19924;DHT22;10124;53.068;18.224;2023-05-10T22:53:38;11.00;1.00
19924;DHT22;10124;53.068;18.224;2023-05-10T22:56:05;11.10;1.00
19924;DHT22;10124;53.068;18.224;2023-05-10T22:58:33;11.00;1.00
19924;DHT22;10124;53.068;18.224;2023-05-10T23:01:00;11.00;1.00
19924;DHT22;10124;53.068;18.224;2023-05-10T23:03:27;11.00;1.00
19924;DHT22;10124;53.068;18.224;2023-05-10T23:05:55;11.90;1.00
19924;DHT22;10124;53.068;18.224;2023-05-10T23:08:23;11.10;1.00
19924;DHT22;10124;53.068;18.224;2023-05-10T23:10:50;11.00;1.00
19924;DHT22;10124;53.068;18.224;2023-05-10T23:13:18;11.10;1.00
19924;DHT22;10124;53.068;18.224;2023-05-10T23:15:46;10.80;1.00
19924;DHT22;10124;53.068;18.224;2023-05-10T23:18:14;10.70;1.00
19924;DHT22;10124;53.068;18.224;2023-05-10T23:20:41;10.60;1.00
19924;DHT22;10124;53.068;18.224;2023-05-10T23:23:09;10.60;1.00
19924;DHT22;10124;53.068;18.224;2023-05-10T23:25:37;10.50;1.00
19924;DHT22;10124;53.068;18.224;2023-05-10T23:28:04;10.40;1.00
19924;DHT22;10124;53.068;18.224;2023-05-10T23:30:32;10.40;1.00
19924;DHT22;10124;53.068;18.224;2023-05-10T23:32:59;11.60;1.00
19924;DHT22;10124;53.068;18.224;2023-05-10T23:35:27;10.20;1.00
19924;DHT22;10124;53.068;18.224;2023-05-10T23:37:55;10.30;1.00
19924;DHT22;10124;53.068;18.224;2023-05-10T23:40:22;10.20;1.00
19924;DHT22;10124;53.068;18.224;2023-05-10T23:42:49;10.20;1.00
19924;DHT22;10124;53.068;18.224;2023-05-10T23:45:17;10.10;1.00
19924;DHT22;10124;53.068;18.224;2023-05-10T23:47:44;10.20;1.00
19924;DHT22;10124;53.068;18.224;2023-05-10T23:50:11;10.10;1.00